Time;durP1;ratioP1;P1;durP2;ratioP2;P2;SDS_P1;SDS_P2;PMS_P1;PMS_P2;Temp;Humidity;BMP_temperature;BMP_pressure;BME280_temperature;BME280_humidity;BME280_pressure;Samples;Min_cycle;Max_cycle;Signal;HPM_P1;HPM_P2
2022/06/11 00:01:17;;;;;;;17.92;12.73;;;;;;;;;;5091951;28;20035;-37
2022/06/11 00:03:42;;;;;;;16.77;11.55;;;;;;;;;;5092091;28;20070;-37
2022/06/11 00:06:09;;;;;;;17.50;12.90;;;;;;;;;;5090638;28;20032;-37
2022/06/11 00:08:34;;;;;;;18.05;12.20;;;;;;;;;;5071480;28;20029;-37
2022/06/11 00:11:00;;;;;;;19.60;12.40;;;;;;;;;;5053592;28;20043;-37
2022/06/11 00:13:25;;;;;;;19.70;12.15;;;;;;;;;;5053646;28;20024;-37
2022/06/11 00:15:53;;;;;;;21.13;12.98;;;;;;;;;;5053459;28;20474;-38
2022/06/11 00:18:20;;;;;;;21.08;11.80;;;;;;;;;;5071553;28;20052;-37
2022/06/11 00:20:45;;;;;;;16.58;12.35;;;;;;;;;;5053876;28;20059;-37
2022/06/11 00:23:10;;;;;;;18.95;12.48;;;;;;;;;;5071758;28;20056;-37
2022/06/11 00:25:36;;;;;;;16.20;11.77;;;;;;;;;;5071490;28;20024;-39
2022/06/11 00:28:02;;;;;;;18.98;12.88;;;;;;;;;;5053540;28;20016;-37
2022/06/11 00:30:28;;;;;;;20.90;13.25;;;;;;;;;;5071502;28;20107;-37
2022/06/11 00:32:55;;;;;;;23.02;13.13;;;;;;;;;;5055434;28;20119;-40
2022/06/11 00:35:21;;;;;;;22.00;13.25;;;;;;;;;;5057760;28;20036;-39
2022/06/11 00:37:46;;;;;;;17.20;13.45;;;;;;;;;;5075583;28;20028;-37
2022/06/11 00:40:14;;;;;;;17.77;13.30;;;;;;;;;;5057608;28;20375;-37
2022/06/11 00:42:39;;;;;;;20.65;13.50;;;;;;;;;;5057302;28;20016;-38
2022/06/11 00:45:23;;;;;;;21.30;14.20;;;;;;;;;;5057344;28;20032;-38
2022/06/11 00:48:04;;;;;;;21.33;13.85;;;;;;;;;;5057254;28;20162;-37
2022/06/11 00:50:29;;;;;;;22.55;14.20;;;;;;;;;;5057273;28;20028;-40
2022/06/11 00:52:56;;;;;;;22.00;13.43;;;;;;;;;;5075195;28;20042;-38
2022/06/11 00:55:36;;;;;;;17.55;12.43;;;;;;;;;;5075213;28;20025;-37
2022/06/11 00:58:06;;;;;;;18.73;13.60;;;;;;;;;;5075237;28;20036;-37
2022/06/11 01:00:44;;;;;;;20.20;13.25;;;;;;;;;;5075218;28;20028;-40
2022/06/11 01:03:14;;;;;;;16.50;12.52;;;;;;;;;;5075124;28;20356;-37
2022/06/11 01:05:42;;;;;;;23.45;13.10;;;;;;;;;;5074831;28;20077;-38
2022/06/11 01:08:21;;;;;;;20.77;13.75;;;;;;;;;;5074562;28;20024;-37
2022/06/11 01:10:49;;;;;;;19.73;14.93;;;;;;;;;;5095050;28;20043;-37
2022/06/11 01:13:15;;;;;;;22.23;13.67;;;;;;;;;;5094622;28;20107;-37
2022/06/11 01:15:52;;;;;;;19.52;13.60;;;;;;;;;;5094868;28;20325;-38
2022/06/11 01:18:21;;;;;;;20.80;13.70;;;;;;;;;;5069953;28;20047;-37
2022/06/11 01:20:52;;;;;;;28.63;13.13;;;;;;;;;;5094643;28;20031;-37
2022/06/11 01:23:37;;;;;;;18.58;12.40;;;;;;;;;;5086852;28;20490;-37
2022/06/11 01:26:08;;;;;;;19.77;13.18;;;;;;;;;;5074627;28;20024;-38
2022/06/11 01:28:52;;;;;;;21.55;13.18;;;;;;;;;;5056499;28;20103;-40
2022/06/11 01:31:18;;;;;;;20.13;13.35;;;;;;;;;;5074375;28;20032;-37
2022/06/11 01:33:46;;;;;;;21.13;12.88;;;;;;;;;;5074453;28;20035;-37
2022/06/11 01:36:15;;;;;;;17.25;12.80;;;;;;;;;;5088711;28;20020;-38
2022/06/11 01:38:40;;;;;;;;;;;;;;;;;;5094749;28;20496;-37
2022/06/11 01:41:24;;;;;;;21.10;12.17;;;;;;;;;;5094715;28;19947;-37
2022/06/11 01:43:52;;;;;;;22.92;13.88;;;;;;;;;;5094097;28;20069;-37
2022/06/11 01:46:31;;;;;;;17.35;13.32;;;;;;;;;;5094750;28;20020;-39
2022/06/11 01:49:01;;;;;;;19.92;12.90;;;;;;;;;;5094356;28;20024;-38
2022/06/11 01:51:46;;;;;;;20.70;12.07;;;;;;;;;;5094218;28;20386;-37
2022/06/11 01:54:11;;;;;;;21.55;12.30;;;;;;;;;;5093340;28;20024;-38
2022/06/11 01:56:43;;;;;;;16.55;11.48;;;;;;;;;;5094246;28;20026;-38
2022/06/11 01:59:29;;;;;;;21.85;12.70;;;;;;;;;;5094288;28;20024;-37
2022/06/11 02:02:00;;;;;;;15.98;12.82;;;;;;;;;;5094378;28;20028;-38
2022/06/11 02:04:33;;;;;;;15.18;11.50;;;;;;;;;;5094288;28;20035;-38
2022/06/11 02:07:13;;;;;;;15.73;11.55;;;;;;;;;;5075996;28;20093;-37
2022/06/11 02:09:39;;;;;;;18.10;11.35;;;;;;;;;;5094214;28;20035;-37
2022/06/11 02:12:09;;;;;;;17.98;12.85;;;;;;;;;;5075279;28;20024;-37
2022/06/11 02:14:35;;;;;;;20.10;11.32;;;;;;;;;;5094024;28;20027;-37
2022/06/11 02:17:06;;;;;;;18.45;11.80;;;;;;;;;;5093350;28;20178;-37
2022/06/11 02:19:36;;;;;;;18.75;13.00;;;;;;;;;;5094021;28;20024;-38
2022/06/11 02:22:13;;;;;;;21.60;11.13;;;;;;;;;;5093602;28;20374;-38
2022/06/11 02:24:41;;;;;;;24.33;12.05;;;;;;;;;;5093436;28;20488;-39
2022/06/11 02:27:10;;;;;;;16.42;10.88;;;;;;;;;;5093443;28;20028;-37
2022/06/11 02:29:36;;;;;;;17.50;12.25;;;;;;;;;;5093287;28;20048;-37
2022/06/11 02:32:09;;;;;;;23.67;11.48;;;;;;;;;;5093240;28;20075;-38
2022/06/11 02:34:37;;;;;;;21.58;12.18;;;;;;;;;;5093565;28;20121;-37
2022/06/11 02:37:05;;;;;;;19.75;11.95;;;;;;;;;;5093645;28;20417;-37
2022/06/11 02:39:32;;;;;;;20.23;11.93;;;;;;;;;;5093466;28;20546;-37
2022/06/11 02:41:57;;;;;;;18.42;11.45;;;;;;;;;;5093180;28;20055;-39
2022/06/11 02:44:23;;;;;;;18.48;11.43;;;;;;;;;;5093140;28;20051;-37
2022/06/11 02:46:48;;;;;;;21.65;12.90;;;;;;;;;;5093332;28;20015;-39
2022/06/11 02:49:14;;;;;;;18.83;12.15;;;;;;;;;;5093297;28;20150;-37
2022/06/11 02:51:39;;;;;;;25.25;12.07;;;;;;;;;;5093158;28;20032;-37
2022/06/11 02:54:04;;;;;;;19.58;11.30;;;;;;;;;;5093160;28;20012;-37
2022/06/11 02:56:30;;;;;;;18.05;11.27;;;;;;;;;;5073933;28;20486;-39
2022/06/11 02:58:55;;;;;;;16.48;11.93;;;;;;;;;;5092598;28;20024;-37
2022/06/11 03:01:22;;;;;;;15.80;11.57;;;;;;;;;;5074893;28;20478;-37
2022/06/11 03:03:49;;;;;;;23.35;12.13;;;;;;;;;;5093112;28;20077;-39
2022/06/11 03:06:15;;;;;;;18.52;11.93;;;;;;;;;;5074794;28;20066;-36
2022/06/11 03:08:41;;;;;;;17.20;12.07;;;;;;;;;;5092634;28;20023;-37
2022/06/11 03:11:07;;;;;;;14.77;10.95;;;;;;;;;;5074241;28;20036;-36
2022/06/11 03:13:32;;;;;;;15.60;10.63;;;;;;;;;;5092338;28;20023;-38
2022/06/11 03:15:58;;;;;;;14.07;11.52;;;;;;;;;;5074628;28;20031;-36
2022/06/11 03:18:23;;;;;;;18.60;12.05;;;;;;;;;;5070765;28;20075;-37
2022/06/11 03:20:51;;;;;;;15.93;11.77;;;;;;;;;;5072284;28;20032;-36
2022/06/11 03:23:17;;;;;;;17.60;12.32;;;;;;;;;;5072437;28;20023;-36
2022/06/11 03:25:42;;;;;;;20.58;11.73;;;;;;;;;;5072153;28;20100;-37
2022/06/11 03:28:09;;;;;;;17.88;12.50;;;;;;;;;;5070740;28;20024;-36
2022/06/11 03:30:34;;;;;;;15.32;11.23;;;;;;;;;;5070953;28;20093;-36
2022/06/11 03:33:00;;;;;;;17.30;11.45;;;;;;;;;;5071912;28;20474;-37
2022/06/11 03:35:25;;;;;;;18.95;11.18;;;;;;;;;;5070887;28;20012;-37
2022/06/11 03:37:50;;;;;;;16.17;11.88;;;;;;;;;;5072179;28;20020;-36
2022/06/11 03:40:16;;;;;;;18.15;12.13;;;;;;;;;;5072088;28;20060;-36
2022/06/11 03:42:41;;;;;;;19.10;12.77;;;;;;;;;;5070360;28;20074;-37
2022/06/11 03:45:08;;;;;;;14.57;11.23;;;;;;;;;;5071941;28;20025;-39
2022/06/11 03:47:36;;;;;;;17.55;12.32;;;;;;;;;;5072161;28;20059;-36
2022/06/11 03:50:03;;;;;;;21.23;12.65;;;;;;;;;;5070511;28;20071;-37
2022/06/11 03:52:30;;;;;;;21.38;14.00;;;;;;;;;;5071627;28;20048;-37
2022/06/11 03:54:56;;;;;;;19.98;11.80;;;;;;;;;;5070675;28;20021;-36
2022/06/11 03:57:21;;;;;;;17.88;11.15;;;;;;;;;;5071626;28;20375;-37
2022/06/11 03:59:47;;;;;;;20.30;11.30;;;;;;;;;;5070192;28;20021;-37
2022/06/11 04:02:12;;;;;;;17.52;10.45;;;;;;;;;;5072012;28;20079;-37
2022/06/11 04:04:37;;;;;;;18.40;11.57;;;;;;;;;;5070536;28;20032;-39
2022/06/11 04:07:03;;;;;;;15.32;11.85;;;;;;;;;;5070334;28;20059;-37
2022/06/11 04:09:31;;;;;;;17.70;10.57;;;;;;;;;;5070195;28;20437;-37
2022/06/11 04:11:56;;;;;;;16.05;11.20;;;;;;;;;;5070176;28;20032;-38
2022/06/11 04:14:22;;;;;;;16.50;11.45;;;;;;;;;;5072039;28;20098;-36
2022/06/11 04:16:47;;;;;;;15.85;11.75;;;;;;;;;;5073651;28;20479;-36
2022/06/11 04:19:14;;;;;;;15.50;11.23;;;;;;;;;;5091733;28;20020;-39
2022/06/11 04:21:39;;;;;;;20.27;11.25;;;;;;;;;;5073398;28;20251;-37
2022/06/11 04:24:05;;;;;;;14.18;10.77;;;;;;;;;;5092065;28;20020;-36
2022/06/11 04:26:36;;;;;;;13.90;10.57;;;;;;;;;;5091774;28;20028;-37
2022/06/11 04:29:03;;;;;;;14.82;10.70;;;;;;;;;;5091592;28;20100;-36
2022/06/11 04:31:30;;;;;;;12.90;10.18;;;;;;;;;;5091220;28;20028;-36
2022/06/11 04:33:55;;;;;;;13.10;9.73;;;;;;;;;;5091529;28;20024;-39
2022/06/11 04:36:22;;;;;;;13.10;9.70;;;;;;;;;;5091704;28;20031;-39
2022/06/11 04:38:47;;;;;;;11.07;9.15;;;;;;;;;;5073335;28;20024;-36
2022/06/11 04:41:13;;;;;;;14.63;9.60;;;;;;;;;;5091186;28;20047;-37
2022/06/11 04:43:39;;;;;;;12.23;9.65;;;;;;;;;;5091688;28;20027;-36
2022/06/11 04:46:04;;;;;;;14.23;9.68;;;;;;;;;;5091416;28;20028;-37
2022/06/11 04:48:30;;;;;;;15.07;9.75;;;;;;;;;;5091596;28;20573;-36
2022/06/11 04:50:56;;;;;;;12.00;9.07;;;;;;;;;;5073273;28;20055;-36
2022/06/11 04:53:22;;;;;;;13.63;9.40;;;;;;;;;;5073423;28;20463;-37
2022/06/11 04:55:47;;;;;;;13.18;9.20;;;;;;;;;;5073425;28;20131;-36
2022/06/11 04:58:12;;;;;;;13.45;9.90;;;;;;;;;;5072988;28;20453;-37
2022/06/11 05:00:38;;;;;;;15.80;9.57;;;;;;;;;;5091593;28;20462;-36
2022/06/11 05:03:04;;;;;;;14.63;9.38;;;;;;;;;;5091011;28;20081;-37
2022/06/11 05:05:29;;;;;;;16.50;10.48;;;;;;;;;;5091252;28;20456;-37
2022/06/11 05:07:56;;;;;;;11.85;8.52;;;;;;;;;;5091569;28;20022;-37
2022/06/11 05:10:23;;;;;;;18.38;9.57;;;;;;;;;;5091119;28;20012;-38
2022/06/11 05:12:49;;;;;;;14.88;10.48;;;;;;;;;;5072911;28;20031;-38
2022/06/11 05:15:14;;;;;;;10.55;8.85;;;;;;;;;;5073286;28;20523;-37
2022/06/11 05:17:39;;;;;;;11.57;9.27;;;;;;;;;;5091168;28;20052;-37
2022/06/11 05:20:06;;;;;;;12.57;8.45;;;;;;;;;;5094529;28;20012;-37
2022/06/11 05:22:31;;;;;;;10.40;8.70;;;;;;;;;;5076477;28;20065;-40
2022/06/11 05:24:56;;;;;;;11.27;9.10;;;;;;;;;;5094863;28;20029;-37
2022/06/11 05:27:23;;;;;;;13.27;9.23;;;;;;;;;;5094706;28;20162;-37
2022/06/11 05:29:52;;;;;;;10.85;9.07;;;;;;;;;;5094766;28;20027;-39
2022/06/11 05:32:21;;;;;;;15.65;9.50;;;;;;;;;;5094726;28;20036;-37
2022/06/11 05:34:47;;;;;;;10.65;8.20;;;;;;;;;;5076312;28;20020;-37
2022/06/11 05:37:12;;;;;;;12.93;8.82;;;;;;;;;;5094529;28;20027;-41
2022/06/11 05:39:39;;;;;;;10.70;7.97;;;;;;;;;;5094480;28;20024;-37
2022/06/11 05:42:04;;;;;;;12.02;9.15;;;;;;;;;;5094363;28;20020;-36
2022/06/11 05:44:30;;;;;;;11.82;8.63;;;;;;;;;;5094480;28;20489;-38
2022/06/11 05:46:55;;;;;;;9.90;7.80;;;;;;;;;;5094291;28;20020;-37
2022/06/11 05:49:23;;;;;;;10.82;8.30;;;;;;;;;;5094279;28;20016;-37
2022/06/11 05:51:51;;;;;;;8.73;7.35;;;;;;;;;;5094067;28;20052;-37
2022/06/11 05:54:20;;;;;;;11.40;7.95;;;;;;;;;;5094303;28;20027;-39
2022/06/11 05:56:45;;;;;;;9.07;7.40;;;;;;;;;;5075925;28;20028;-37
2022/06/11 05:59:14;;;;;;;11.18;7.13;;;;;;;;;;5094107;28;20024;-37
2022/06/11 06:01:40;;;;;;;9.38;7.80;;;;;;;;;;5076147;28;20109;-37
2022/06/11 06:04:05;;;;;;;8.57;7.38;;;;;;;;;;5093862;28;20032;-37
2022/06/11 06:06:31;;;;;;;10.82;7.28;;;;;;;;;;5075752;28;20027;-39
2022/06/11 06:08:57;;;;;;;8.27;6.18;;;;;;;;;;5075685;28;20039;-37
2022/06/11 06:11:22;;;;;;;7.78;6.18;;;;;;;;;;5072207;28;20059;-39
2022/06/11 06:13:48;;;;;;;11.52;5.70;;;;;;;;;;5073493;28;20096;-37
2022/06/11 06:16:14;;;;;;;6.78;5.90;;;;;;;;;;5073776;28;20071;-37
2022/06/11 06:18:40;;;;;;;7.90;5.25;;;;;;;;;;5034342;28;20076;-37
2022/06/11 06:21:05;;;;;;;7.68;5.68;;;;;;;;;;5032382;28;20044;-37
2022/06/11 06:23:31;;;;;;;6.20;5.20;;;;;;;;;;5032285;28;20026;-40
2022/06/11 06:25:57;;;;;;;8.32;4.78;;;;;;;;;;5033171;28;20468;-37
2022/06/11 06:28:22;;;;;;;5.40;4.90;;;;;;;;;;5032354;28;20021;-37
2022/06/11 06:30:47;;;;;;;7.20;4.68;;;;;;;;;;5033321;28;20100;-40
2022/06/11 06:33:13;;;;;;;8.27;4.65;;;;;;;;;;5033209;28;20105;-38
2022/06/11 06:35:38;;;;;;;6.68;5.55;;;;;;;;;;5033435;28;20181;-37
2022/06/11 06:38:04;;;;;;;7.90;4.97;;;;;;;;;;5033257;28;20079;-37
2022/06/11 06:40:29;;;;;;;6.50;4.70;;;;;;;;;;5033102;28;20239;-37
2022/06/11 06:42:55;;;;;;;7.20;4.57;;;;;;;;;;5033142;28;20018;-37
2022/06/11 06:45:20;;;;;;;5.85;5.25;;;;;;;;;;5033309;28;20025;-37
2022/06/11 06:47:46;;;;;;;5.57;4.93;;;;;;;;;;5032935;28;20021;-37
2022/06/11 06:50:11;;;;;;;5.63;4.88;;;;;;;;;;5033065;28;20313;-37
2022/06/11 06:52:36;;;;;;;6.10;4.80;;;;;;;;;;5031650;28;20076;-37
2022/06/11 06:55:02;;;;;;;6.22;4.60;;;;;;;;;;5032615;28;20017;-38
2022/06/11 06:57:27;;;;;;;5.13;4.55;;;;;;;;;;5033151;28;20464;-37
2022/06/11 06:59:53;;;;;;;7.07;4.65;;;;;;;;;;5033218;28;20020;-37
2022/06/11 07:02:18;;;;;;;5.80;4.60;;;;;;;;;;5031619;28;20033;-37
2022/06/11 07:04:43;;;;;;;6.25;4.70;;;;;;;;;;5032726;28;20636;-38
2022/06/11 07:07:13;;;;;;;8.57;4.47;;;;;;;;;;5032911;28;20361;-37
2022/06/11 07:09:38;;;;;;;4.35;3.95;;;;;;;;;;5031128;28;20026;-38
2022/06/11 07:12:04;;;;;;;7.00;4.45;;;;;;;;;;5040920;28;20047;-37
2022/06/11 07:14:29;;;;;;;7.70;4.22;;;;;;;;;;5051266;28;20072;-37
2022/06/11 07:16:57;;;;;;;4.97;3.75;;;;;;;;;;5051126;28;20041;-40
2022/06/11 07:19:26;;;;;;;4.45;4.05;;;;;;;;;;5051170;28;20028;-38
2022/06/11 07:21:53;;;;;;;6.43;4.15;;;;;;;;;;5052346;28;20531;-37
2022/06/11 07:24:21;;;;;;;5.18;3.85;;;;;;;;;;5051049;28;20028;-37
2022/06/11 07:26:49;;;;;;;5.28;3.95;;;;;;;;;;5052081;28;20024;-37
2022/06/11 07:29:34;;;;;;;5.60;4.23;;;;;;;;;;5052542;28;20017;-37
2022/06/11 07:32:01;;;;;;;5.63;4.25;;;;;;;;;;5051578;28;20564;-37
2022/06/11 07:34:27;;;;;;;5.97;3.55;;;;;;;;;;5051743;28;20021;-38
2022/06/11 07:36:53;;;;;;;4.55;3.58;;;;;;;;;;5050643;28;20035;-37
2022/06/11 07:39:18;;;;;;;5.10;3.80;;;;;;;;;;5052310;28;20036;-37
2022/06/11 07:41:44;;;;;;;7.18;3.75;;;;;;;;;;5051772;28;20525;-37
2022/06/11 07:44:09;;;;;;;4.65;4.00;;;;;;;;;;5050482;28;20021;-39
2022/06/11 07:46:34;;;;;;;6.88;3.72;;;;;;;;;;5050452;28;20036;-38
2022/06/11 07:49:00;;;;;;;3.88;3.47;;;;;;;;;;5051841;28;20056;-37
2022/06/11 07:51:25;;;;;;;5.00;3.65;;;;;;;;;;5051887;28;20100;-38
2022/06/11 07:53:50;;;;;;;3.55;3.25;;;;;;;;;;5051679;28;20029;-37
2022/06/11 07:56:17;;;;;;;7.78;3.20;;;;;;;;;;5051577;28;20017;-38
2022/06/11 07:58:42;;;;;;;5.72;3.70;;;;;;;;;;5051647;28;20404;-38
2022/06/11 08:01:08;;;;;;;4.35;3.28;;;;;;;;;;5051925;28;20143;-38
2022/06/11 08:03:36;;;;;;;3.17;2.55;;;;;;;;;;5051773;28;20021;-40
2022/06/11 08:06:02;;;;;;;3.67;3.20;;;;;;;;;;5051610;28;20029;-38
2022/06/11 08:08:28;;;;;;;3.10;2.83;;;;;;;;;;5050113;28;20028;-38
2022/06/11 08:10:54;;;;;;;7.00;3.65;;;;;;;;;;5051106;28;20047;-38
2022/06/11 08:13:20;;;;;;;4.03;2.67;;;;;;;;;;5032269;28;20017;-38
2022/06/11 08:15:47;;;;;;;3.60;2.60;;;;;;;;;;5031542;28;20060;-37
2022/06/11 08:18:12;;;;;;;2.78;2.58;;;;;;;;;;5060475;28;20118;-38
2022/06/11 08:20:38;;;;;;;3.25;2.70;;;;;;;;;;5071293;28;20016;-40
2022/06/11 08:23:04;;;;;;;3.58;3.25;;;;;;;;;;5071234;28;20479;-38
2022/06/11 08:25:30;;;;;;;6.15;2.67;;;;;;;;;;5053438;28;20024;-38
2022/06/11 08:27:56;;;;;;;4.78;3.22;;;;;;;;;;5072042;28;20036;-37
2022/06/11 08:30:23;;;;;;;4.95;3.15;;;;;;;;;;5071384;28;20407;-38
2022/06/11 08:32:49;;;;;;;3.78;3.17;;;;;;;;;;5053056;28;20078;-41
2022/06/11 08:35:15;;;;;;;4.63;2.88;;;;;;;;;;5071392;28;20417;-37
2022/06/11 08:37:41;;;;;;;3.47;2.80;;;;;;;;;;5052883;28;20077;-39
2022/06/11 08:40:21;;;;;;;4.90;2.90;;;;;;;;;;5071668;28;20107;-38
2022/06/11 08:42:51;;;;;;;6.30;3.10;;;;;;;;;;5070983;28;20057;-41
2022/06/11 08:45:27;;;;;;;5.10;3.15;;;;;;;;;;5053353;28;20569;-39
2022/06/11 08:47:57;;;;;;;2.70;2.50;;;;;;;;;;5071142;28;20115;-39
2022/06/11 08:50:37;;;;;;;7.57;2.33;;;;;;;;;;5071524;28;20544;-37
2022/06/11 08:53:04;;;;;;;3.72;2.67;;;;;;;;;;5053378;28;20031;-41
2022/06/11 08:55:33;;;;;;;6.63;2.20;;;;;;;;;;5074955;28;20020;-38
2022/06/11 08:58:05;;;;;;;3.33;2.40;;;;;;;;;;5056938;28;20017;-37
2022/06/11 09:00:33;;;;;;;2.70;2.20;;;;;;;;;;5056760;28;20490;-37
2022/06/11 09:03:08;;;;;;;3.42;2.50;;;;;;;;;;5074917;28;20016;-37
2022/06/11 09:05:48;;;;;;;4.53;2.20;;;;;;;;;;5074665;28;20394;-38
2022/06/11 09:08:32;;;;;;;3.30;2.05;;;;;;;;;;5074967;28;20031;-37
2022/06/11 09:11:04;;;;;;;1.85;1.75;;;;;;;;;;5056500;28;20081;-37
2022/06/11 09:13:48;;;;;;;3.00;1.88;;;;;;;;;;5074781;28;20024;-37
2022/06/11 09:16:16;;;;;;;2.20;1.77;;;;;;;;;;5074598;28;20077;-37
2022/06/11 09:18:49;;;;;;;2.00;1.90;;;;;;;;;;5073180;28;20044;-37
2022/06/11 09:21:22;;;;;;;2.20;1.90;;;;;;;;;;5073254;28;20166;-38
2022/06/11 09:24:17;;;;;;;3.55;2.08;;;;;;;;;;5074395;28;20016;-37
2022/06/11 09:26:44;;;;;;;4.80;1.98;;;;;;;;;;5042775;28;20127;-40
2022/06/11 09:29:10;;;;;;;2.58;1.80;;;;;;;;;;5074536;28;20021;-37
2022/06/11 09:31:35;;;;;;;7.72;2.33;;;;;;;;;;5073127;28;20109;-37
2022/06/11 09:34:11;;;;;;;2.03;1.83;;;;;;;;;;5074173;28;20016;-37
2022/06/11 09:36:38;;;;;;;2.80;1.67;;;;;;;;;;5073248;28;20028;-37
2022/06/11 09:39:11;;;;;;;2.50;2.00;;;;;;;;;;5073128;28;20024;-37
2022/06/11 09:41:55;;;;;;;2.08;1.88;;;;;;;;;;5072887;28;20159;-37
2022/06/11 09:44:24;;;;;;;3.58;2.15;;;;;;;;;;5072711;28;20028;-38
2022/06/11 09:47:08;;;;;;;2.10;1.90;;;;;;;;;;5074200;28;20034;-37
2022/06/11 09:49:52;;;;;;;2.55;2.35;;;;;;;;;;5074236;28;20036;-37
2022/06/11 09:52:22;;;;;;;4.07;2.22;;;;;;;;;;5073801;28;20039;-37
2022/06/11 09:54:52;;;;;;;2.55;2.10;;;;;;;;;;5072252;28;20024;-38
2022/06/11 09:57:23;;;;;;;3.25;2.00;;;;;;;;;;5073442;28;20025;-38
2022/06/11 09:59:58;;;;;;;4.35;1.98;;;;;;;;;;5072678;28;20441;-37
2022/06/11 10:03:01;;;;;;;3.40;2.28;;;;;;;;;;5072972;28;20024;-40
2022/06/11 10:05:40;;;;;;;2.40;2.20;;;;;;;;;;5072400;28;20036;-38
2022/06/11 10:08:14;;;;;;;2.33;1.90;;;;;;;;;;5073582;28;20456;-38
2022/06/11 10:10:41;;;;;;;7.22;1.80;;;;;;;;;;5073167;28;20422;-38
2022/06/11 10:13:17;;;;;;;2.60;2.10;;;;;;;;;;5089514;28;20463;-37
2022/06/11 10:15:46;;;;;;;2.45;1.90;;;;;;;;;;5093693;28;20024;-39
2022/06/11 10:18:11;;;;;;;3.95;2.20;;;;;;;;;;5093641;28;20058;-37
2022/06/11 10:20:39;;;;;;;2.80;2.00;;;;;;;;;;5075658;28;20107;-37
2022/06/11 10:23:31;;;;;;;2.55;2.10;;;;;;;;;;5093632;28;20244;-37
2022/06/11 10:26:09;;;;;;;4.13;2.33;;;;;;;;;;5075293;28;20047;-38
2022/06/11 10:28:49;;;;;;;2.70;2.30;;;;;;;;;;5093307;28;20034;-38
2022/06/11 10:31:33;;;;;;;3.40;2.17;;;;;;;;;;5075483;28;20146;-38
2022/06/11 10:34:08;;;;;;;2.47;2.28;;;;;;;;;;5093393;28;20474;-37
2022/06/11 10:36:36;;;;;;;2.80;2.10;;;;;;;;;;5074774;28;20023;-37
2022/06/11 10:39:10;;;;;;;2.08;1.90;;;;;;;;;;5093413;28;20046;-37
2022/06/11 10:41:39;;;;;;;2.47;2.28;;;;;;;;;;5075212;28;20035;-38
2022/06/11 10:44:09;;;;;;;2.45;2.25;;;;;;;;;;5074825;28;20023;-38
2022/06/11 10:46:36;;;;;;;2.75;2.53;;;;;;;;;;5074772;28;20078;-37
2022/06/11 10:49:02;;;;;;;2.65;2.17;;;;;;;;;;5074885;28;20020;-38
2022/06/11 10:51:33;;;;;;;2.10;2.00;;;;;;;;;;5092845;28;20539;-38
2022/06/11 10:54:04;;;;;;;2.60;2.00;;;;;;;;;;5075166;28;20107;-39
2022/06/11 10:56:48;;;;;;;2.10;1.80;;;;;;;;;;5092893;28;20020;-38
2022/06/11 10:59:28;;;;;;;2.60;2.10;;;;;;;;;;5093075;28;20016;-38
2022/06/11 11:02:02;;;;;;;4.22;2.10;;;;;;;;;;5092748;28;20065;-38
2022/06/11 11:04:28;;;;;;;5.80;2.03;;;;;;;;;;5074992;28;20020;-37
2022/06/11 11:07:26;;;;;;;3.47;2.05;;;;;;;;;;5092784;28;20027;-42
2022/06/11 11:09:56;;;;;;;3.25;2.00;;;;;;;;;;5036781;28;20109;-38
2022/06/11 11:12:24;;;;;;;2.08;1.98;;;;;;;;;;5080874;28;20518;-38
2022/06/11 11:14:58;;;;;;;4.13;2.10;;;;;;;;;;5072581;28;20021;-39
2022/06/11 11:17:25;;;;;;;2.10;1.90;;;;;;;;;;5071385;28;20376;-38
2022/06/11 11:22:38;;;;;;;2.95;2.00;;;;;;;;;;5072464;28;20027;-38
2022/06/11 11:25:06;;;;;;;3.35;2.00;;;;;;;;;;5071916;28;20024;-38
2022/06/11 11:27:34;;;;;;;2.38;1.90;;;;;;;;;;5072280;28;20048;-38
2022/06/11 11:30:03;;;;;;;3.42;1.92;;;;;;;;;;5054231;28;20640;-40
2022/06/11 11:32:28;;;;;;;;;;;;;;;;;;5054612;28;20519;-38
2022/06/11 11:34:53;;;;;;;2.20;2.00;;;;;;;;;;5053988;28;19904;-37
2022/06/11 11:37:19;;;;;;;1.92;1.83;;;;;;;;;;5072231;28;20024;-38
2022/06/11 11:39:52;;;;;;;2.50;1.65;;;;;;;;;;5053795;28;20024;-37
2022/06/11 11:42:22;;;;;;;2.50;1.90;;;;;;;;;;5054339;28;20017;-37
2022/06/11 11:44:51;;;;;;;5.03;2.13;;;;;;;;;;5072068;28;20021;-38
2022/06/11 11:47:22;;;;;;;2.13;1.92;;;;;;;;;;5071906;28;20367;-38
2022/06/11 11:50:17;;;;;;;3.13;2.00;;;;;;;;;;5053723;28;20078;-38
2022/06/11 11:52:45;;;;;;;2.22;2.05;;;;;;;;;;5049703;28;20048;-38
2022/06/11 11:55:19;;;;;;;1.85;1.73;;;;;;;;;;5037250;28;20030;-37
2022/06/11 11:57:58;;;;;;;2.22;2.05;;;;;;;;;;5071836;28;20082;-37
2022/06/11 12:00:31;;;;;;;2.45;2.05;;;;;;;;;;5071209;28;20132;-38
2022/06/11 12:02:59;;;;;;;2.60;1.80;;;;;;;;;;5054064;28;20352;-37
2022/06/11 12:05:30;;;;;;;3.78;2.50;;;;;;;;;;5072104;28;20028;-37
2022/06/11 12:07:56;;;;;;;4.32;1.92;;;;;;;;;;5071626;28;20025;-37
2022/06/11 12:10:28;;;;;;;2.70;1.98;;;;;;;;;;5053603;28;20502;-39
2022/06/11 12:12:54;;;;;;;2.17;1.85;;;;;;;;;;5086724;28;20543;-38
2022/06/11 12:15:28;;;;;;;2.55;2.00;;;;;;;;;;5073716;28;20378;-40
2022/06/11 12:18:02;;;;;;;2.80;1.88;;;;;;;;;;5073717;28;20498;-38
2022/06/11 12:20:41;;;;;;;2.95;2.05;;;;;;;;;;5091365;28;20494;-38
2022/06/11 12:23:21;;;;;;;2.78;2.10;;;;;;;;;;5092135;28;20020;-37
2022/06/11 12:25:50;;;;;;;3.80;2.10;;;;;;;;;;5073864;28;20474;-37
2022/06/11 12:28:17;;;;;;;2.13;1.90;;;;;;;;;;5094030;28;20023;-38
2022/06/11 12:30:43;;;;;;;7.18;2.10;;;;;;;;;;5095844;28;20534;-37
2022/06/11 12:33:12;;;;;;;3.45;1.88;;;;;;;;;;5077528;28;20020;-37
2022/06/11 12:35:37;;;;;;;6.00;2.10;;;;;;;;;;5095562;28;20020;-38
2022/06/11 12:38:14;;;;;;;2.43;2.23;;;;;;;;;;5095651;28;20049;-38
2022/06/11 12:40:40;;;;;;;2.28;2.00;;;;;;;;;;5096238;28;20024;-39
2022/06/11 12:43:05;;;;;;;4.53;2.38;;;;;;;;;;5095974;28;20545;-38
2022/06/11 12:45:30;;;;;;;2.15;2.03;;;;;;;;;;5077281;28;20019;-37
2022/06/11 12:47:59;;;;;;;3.03;1.85;;;;;;;;;;5095631;28;20016;-40
2022/06/11 12:50:31;;;;;;;2.60;1.83;;;;;;;;;;5077244;28;20016;-39
2022/06/11 12:53:11;;;;;;;3.40;1.90;;;;;;;;;;5095787;28;20105;-37
2022/06/11 12:55:46;;;;;;;2.97;1.65;;;;;;;;;;5095340;28;20024;-37
2022/06/11 12:58:19;;;;;;;1.88;1.63;;;;;;;;;;5095226;28;20032;-38
2022/06/11 13:01:03;;;;;;;1.98;1.77;;;;;;;;;;5095420;28;20023;-38
2022/06/11 13:03:30;;;;;;;1.65;1.42;;;;;;;;;;5077320;28;20024;-37
2022/06/11 13:06:10;;;;;;;1.92;1.70;;;;;;;;;;5095399;28;20024;-37
2022/06/11 13:08:39;;;;;;;2.72;1.75;;;;;;;;;;5077096;28;20031;-37
2022/06/11 13:11:14;;;;;;;2.17;1.98;;;;;;;;;;5075986;28;20024;-39
2022/06/11 13:13:50;;;;;;;2.40;2.20;;;;;;;;;;5056314;28;20436;-37
2022/06/11 13:16:28;;;;;;;3.40;1.75;;;;;;;;;;5056888;28;20051;-38
2022/06/11 13:19:17;;;;;;;3.22;2.00;;;;;;;;;;5056677;28;20044;-38
2022/06/11 13:21:57;;;;;;;1.70;1.60;;;;;;;;;;5043357;28;20089;-40
2022/06/11 13:24:22;;;;;;;;;;;;;;;;;;5056799;28;20035;-40
2022/06/11 13:26:55;;;;;;;2.50;1.80;;;;;;;;;;5074575;28;20266;-38
2022/06/11 13:29:25;;;;;;;2.22;1.92;;;;;;;;;;5056710;28;20023;-38
2022/06/11 13:32:10;;;;;;;2.05;1.80;;;;;;;;;;5056568;28;20098;-38
2022/06/11 13:34:54;;;;;;;3.17;2.08;;;;;;;;;;5055987;28;20087;-37
2022/06/11 13:37:26;;;;;;;3.38;1.90;;;;;;;;;;5074287;28;20059;-37
2022/06/11 13:40:02;;;;;;;4.15;2.22;;;;;;;;;;5073321;28;20027;-37
2022/06/11 13:42:46;;;;;;;2.80;1.67;;;;;;;;;;5055965;28;20024;-37
2022/06/11 13:45:30;;;;;;;2.35;1.92;;;;;;;;;;5074270;28;20045;-41
2022/06/11 13:48:17;;;;;;;2.22;2.03;;;;;;;;;;5056162;28;20514;-37
2022/06/11 13:50:43;;;;;;;2.83;2.00;;;;;;;;;;5056231;28;20056;-39
2022/06/11 13:55:56;;;;;;;2.38;2.00;;;;;;;;;;5074289;28;20494;-37
2022/06/11 13:58:28;;;;;;;2.20;2.00;;;;;;;;;;5073962;28;20106;-38
2022/06/11 14:01:05;;;;;;;2.33;2.05;;;;;;;;;;5073848;28;20021;-37
2022/06/11 14:03:49;;;;;;;5.05;2.00;;;;;;;;;;5055956;28;20073;-38
2022/06/11 14:06:15;;;;;;;2.70;2.50;;;;;;;;;;5074040;28;20056;-37
2022/06/11 14:08:43;;;;;;;2.00;1.83;;;;;;;;;;5074096;28;20067;-37
2022/06/11 14:11:17;;;;;;;1.80;1.70;;;;;;;;;;5074552;28;20028;-40
2022/06/11 14:13:51;;;;;;;2.13;1.73;;;;;;;;;;5075743;28;20031;-38
2022/06/11 14:16:42;;;;;;;5.82;2.10;;;;;;;;;;5093520;28;20115;-37
2022/06/11 14:19:17;;;;;;;2.22;2.03;;;;;;;;;;5088733;28;20036;-38
2022/06/11 14:21:47;;;;;;;2.47;2.13;;;;;;;;;;5075877;28;20031;-38
2022/06/11 14:24:32;;;;;;;2.38;2.17;;;;;;;;;;5093727;28;20466;-38
2022/06/11 14:26:57;;;;;;;2.47;1.92;;;;;;;;;;5093665;28;20020;-37
2022/06/11 14:29:28;;;;;;;5.50;1.73;;;;;;;;;;5093809;28;20028;-37
2022/06/11 14:31:56;;;;;;;2.25;2.05;;;;;;;;;;5093531;28;20066;-37
2022/06/11 14:34:31;;;;;;;6.13;1.95;;;;;;;;;;5093655;28;20024;-38
2022/06/11 14:37:11;;;;;;;3.25;2.38;;;;;;;;;;5093306;28;20077;-37
2022/06/11 14:39:37;;;;;;;6.28;2.78;;;;;;;;;;5075369;28;20518;-37
2022/06/11 14:42:11;;;;;;;2.20;2.00;;;;;;;;;;5093345;28;20027;-41
2022/06/11 14:44:37;;;;;;;3.50;2.40;;;;;;;;;;5093407;28;20025;-37
2022/06/11 14:47:03;;;;;;;2.88;2.58;;;;;;;;;;5092953;28;20099;-37
2022/06/11 14:49:29;;;;;;;7.93;3.00;;;;;;;;;;5093260;28;20141;-39
2022/06/11 14:52:04;;;;;;;6.53;3.00;;;;;;;;;;5091561;28;20039;-38
2022/06/11 14:54:48;;;;;;;2.40;2.20;;;;;;;;;;5093353;28;20066;-39